Time;durP1;ratioP1;P1;durP2;ratioP2;P2;SDS_P1;SDS_P2;PMS_P1;PMS_P2;Temp;Humidity;BMP_temperature;BMP_pressure;BME280_temperature;BME280_humidity;BME280_pressure;Samples;Min_cycle;Max_cycle;Signal;HPM_P1;HPM_P2
2021/06/01 00:00:30;;;;;;;;;;;;;;;6.51;71.01;100811.55;106178;1096;76895;-65
2021/06/01 00:02:55;;;;;;;;;;;;;;;6.51;70.89;100811.55;106192;1097;77454;-60
2021/06/01 00:05:00;;;;;;;;;;;;;;;6.52;70.86;100807.88;106164;1096;77410;-60
2021/06/01 00:07:06;;;;;;;;;;;;;;;6.53;70.75;100809.58;106186;1097;77182;-66
2021/06/01 00:09:13;;;;;;;;;;;;;;;6.53;70.95;100809.58;105940;1096;78303;-65
2021/06/01 00:11:22;;;;;;;;;;;;;;;6.53;71.15;100809.58;106165;1096;77803;-61
2021/06/01 00:13:27;;;;;;;;;;;;;;;6.52;71.08;100802.50;106185;1097;77986;-61
2021/06/01 00:15:32;;;;;;;;;;;;;;;6.49;71.26;100810.86;106192;1097;78107;-61
2021/06/01 00:17:38;;;;;;;;;;;;;;;6.47;71.23;100809.33;106190;1095;78649;-60
2021/06/01 00:19:43;;;;;;;;;;;;;;;6.46;71.25;100810.31;106182;1097;78057;-60
2021/06/01 00:21:48;;;;;;;;;;;;;;;6.43;71.43;100807.94;106161;1096;76893;-65
2021/06/01 00:23:54;;;;;;;;;;;;;;;6.41;71.35;100810.78;106155;1096;77303;-65
2021/06/01 00:25:59;;;;;;;;;;;;;;;6.41;71.42;100815.30;106194;1097;77031;-65
2021/06/01 00:28:05;;;;;;;;;;;;;;;6.46;71.41;100813.00;106157;1095;77654;-66
2021/06/01 00:30:11;;;;;;;;;;;;;;;6.50;71.38;100811.71;106156;1097;77488;-65
2021/06/01 00:32:17;;;;;;;;;;;;;;;6.49;71.44;100807.33;106157;1097;76870;-61
2021/06/01 00:34:22;;;;;;;;;;;;;;;6.41;71.71;100801.88;106196;1095;77940;-61
2021/06/01 00:36:27;;;;;;;;;;;;;;;6.36;71.53;100799.67;106178;1095;76956;-60
2021/06/01 00:38:32;;;;;;;;;;;;;;;6.36;71.61;100805.03;106158;1097;78195;-61
2021/06/01 00:40:37;;;;;;;;;;;;;;;6.36;71.61;100807.72;106150;1097;78532;-60
2021/06/01 00:42:42;;;;;;;;;;;;;;;6.35;71.82;100806.02;106173;1097;77298;-65
2021/06/01 00:44:50;;;;;;;;;;;;;;;6.34;71.82;100809.72;106180;1095;77004;-65
2021/06/01 00:46:55;;;;;;;;;;;;;;;6.35;71.79;100810.53;106202;1097;76723;-65
2021/06/01 00:49:00;;;;;;;;;;;;;;;6.34;71.91;100804.35;106172;1097;77505;-65
2021/06/01 00:51:06;;;;;;;;;;;;;;;6.36;71.73;100802.35;106190;1095;77721;-64
2021/06/01 00:53:11;;;;;;;;;;;;;;;6.37;71.73;100808.57;106164;1097;78010;-65
2021/06/01 00:55:17;;;;;;;;;;;;;;;6.39;71.68;100809.25;106190;1097;77079;-66
2021/06/01 00:57:22;;;;;;;;;;;;;;;6.38;71.61;100811.09;106167;1097;77270;-65
2021/06/01 00:59:27;;;;;;;;;;;;;;;6.31;71.82;100799.29;106169;1096;78272;-65
2021/06/01 01:01:32;;;;;;;;;;;;;;;6.21;72.07;100803.86;106160;1095;77630;-60
2021/06/01 01:03:39;;;;;;;;;;;;;;;6.17;71.86;100805.17;106167;1096;76829;-60
2021/06/01 01:05:49;;;;;;;;;;;;;;;6.20;71.94;100810.23;106165;1097;76991;-60
2021/06/01 01:08:05;;;;;;;;;;;;;;;6.16;72.04;100795.42;106159;1095;78402;-60
2021/06/01 01:10:11;;;;;;;;;;;;;;;6.13;72.01;100800.23;106170;1096;77105;-61
2021/06/01 01:12:22;;;;;;;;;;;;;;;6.17;72.00;100797.13;106188;1097;77933;-61
2021/06/01 01:14:32;;;;;;;;;;;;;;;6.20;72.35;100799.51;106158;1096;78236;-60
2021/06/01 01:16:41;;;;;;;;;;;;;;;6.25;72.33;100802.57;106187;1097;78358;-61
2021/06/01 01:18:49;;;;;;;;;;;;;;;6.26;72.74;100798.88;106196;1096;78139;-60
2021/06/01 01:20:59;;;;;;;;;;;;;;;6.29;72.54;100795.89;106162;1097;78534;-61
2021/06/01 01:23:12;;;;;;;;;;;;;;;6.35;72.61;100795.28;106198;1096;77960;-60
2021/06/01 01:25:22;;;;;;;;;;;;;;;6.39;72.46;100798.52;106167;1097;77525;-60
2021/06/01 01:27:36;;;;;;;;;;;;;;;6.43;72.69;100798.05;106184;1095;76635;-65
2021/06/01 01:29:42;;;;;;;;;;;;;;;6.47;72.62;100799.45;106185;1097;78360;-65
2021/06/01 01:31:51;;;;;;;;;;;;;;;6.54;72.71;100794.28;106201;1097;78529;-60
2021/06/01 01:33:59;;;;;;;;;;;;;;;6.60;72.85;100803.56;106199;1097;76722;-61
2021/06/01 01:36:07;;;;;;;;;;;;;;;6.68;73.09;100803.63;106188;1097;77690;-61
2021/06/01 01:38:13;;;;;;;;;;;;;;;6.76;73.29;100792.96;106169;1097;78150;-60
2021/06/01 01:40:18;;;;;;;;;;;;;;;6.79;72.98;100790.82;106193;1097;78286;-61
2021/06/01 01:42:24;;;;;;;;;;;;;;;6.89;73.33;100793.43;106225;1095;78077;-60
2021/06/01 01:44:36;;;;;;;;;;;;;;;6.97;73.33;100785.44;106166;1097;77958;-61
2021/06/01 01:46:57;;;;;;;;;;;;;;;7.08;73.44;100790.55;106183;1097;77263;-61
2021/06/01 01:49:03;;;;;;;;;;;;;;;7.14;72.91;100793.43;106180;1097;77233;-60
2021/06/01 01:51:14;;;;;;;;;;;;;;;7.18;73.26;100785.06;106175;1097;78741;-65
2021/06/01 01:53:20;;;;;;;;;;;;;;;7.25;73.06;100789.63;106173;1097;78134;-65
2021/06/01 01:55:29;;;;;;;;;;;;;;;7.29;73.32;100782.95;106198;1095;77137;-65
2021/06/01 01:57:35;;;;;;;;;;;;;;;7.36;73.43;100783.17;106183;1096;78178;-60
2021/06/01 01:59:40;;;;;;;;;;;;;;;7.42;73.62;100785.20;106184;1096;77586;-60
2021/06/01 02:01:47;;;;;;;;;;;;;;;7.45;73.20;100788.42;106188;1095;77755;-60
2021/06/01 02:03:52;;;;;;;;;;;;;;;7.49;73.27;100778.20;106170;1097;78070;-60
2021/06/01 02:05:58;;;;;;;;;;;;;;;7.53;73.38;100772.33;106196;1096;77514;-65
2021/06/01 02:08:04;;;;;;;;;;;;;;;7.57;73.39;100773.71;106162;1097;78486;-65
2021/06/01 02:10:11;;;;;;;;;;;;;;;7.61;73.39;100780.44;106147;1097;78246;-65
2021/06/01 02:12:17;;;;;;;;;;;;;;;7.64;73.38;100780.12;106049;1095;77034;-65
2021/06/01 02:14:23;;;;;;;;;;;;;;;7.69;73.50;100777.78;106034;1096;77262;-65
2021/06/01 02:16:49;;;;;;;;;;;;;;;7.73;73.45;100776.47;105896;1098;76898;-65
2021/06/01 02:18:54;;;;;;;;;;;;;;;7.74;73.59;100780.00;106038;1095;77944;-65
2021/06/01 02:21:00;;;;;;;;;;;;;;;7.78;73.66;100778.66;106021;1095;77203;-65
2021/06/01 02:25:37;;;;;;;;;;;;;;;7.88;73.67;100770.48;106044;1096;76827;-65
2021/06/01 02:27:47;;;;;;;;;;;;;;;7.92;73.59;100775.36;106037;1095;78097;-60
2021/06/01 02:30:01;;;;;;;;;;;;;;;7.95;73.79;100774.19;106053;1095;77414;-60
2021/06/01 02:32:07;;;;;;;;;;;;;;;7.98;73.57;100768.48;106034;1096;77381;-65
2021/06/01 02:34:13;;;;;;;;;;;;;;;8.02;73.55;100769.86;106030;1095;76669;-65
2021/06/01 02:36:19;;;;;;;;;;;;;;;8.08;73.78;100771.86;106047;1095;77405;-65
2021/06/01 02:38:24;;;;;;;;;;;;;;;8.12;73.49;100762.47;106029;1095;76722;-66
2021/06/01 02:40:30;;;;;;;;;;;;;;;8.14;73.46;100760.45;106026;1096;78951;-66
2021/06/01 02:42:35;;;;;;;;;;;;;;;8.14;73.53;100765.83;106033;1096;78092;-66
2021/06/01 02:44:40;;;;;;;;;;;;;;;8.15;73.50;100764.84;106013;1095;77612;-65
2021/06/01 02:46:47;;;;;;;;;;;;;;;8.19;73.68;100761.64;106051;1095;76715;-66
2021/06/01 02:48:55;;;;;;;;;;;;;;;8.17;73.59;100760.97;106042;1096;77615;-65
2021/06/01 02:51:15;;;;;;;;;;;;;;;8.20;73.49;100757.10;106061;1096;77363;-65
2021/06/01 02:53:22;;;;;;;;;;;;;;;8.26;73.41;100759.14;106026;1095;77155;-65
2021/06/01 02:55:27;;;;;;;;;;;;;;;8.33;73.34;100757.48;106046;1095;78119;-66
2021/06/01 02:57:32;;;;;;;;;;;;;;;8.40;73.72;100755.83;106032;1095;77233;-60
2021/06/01 02:59:39;;;;;;;;;;;;;;;8.46;73.71;100757.83;106043;1096;77816;-61
2021/06/01 03:01:50;;;;;;;;;;;;;;;8.56;73.41;100761.23;106048;1095;78424;-66
2021/06/01 03:03:58;;;;;;;;;;;;;;;8.62;73.07;100755.18;106029;1095;76875;-65
2021/06/01 03:06:06;;;;;;;;;;;;;;;8.70;73.34;100774.03;106049;1095;77089;-60
2021/06/01 03:08:18;;;;;;;;;;;;;;;8.75;73.17;100760.89;106029;1095;77997;-61
2021/06/01 03:10:24;;;;;;;;;;;;;;;8.83;73.13;100771.66;106029;1096;78413;-60
2021/06/01 03:12:39;;;;;;;;;;;;;;;8.89;73.16;100768.30;106016;1095;76975;-66
2021/06/01 03:14:44;;;;;;;;;;;;;;;8.97;73.11;100772.83;106049;1096;78059;-66
2021/06/01 03:16:49;;;;;;;;;;;;;;;9.01;73.14;100763.38;106029;1095;76749;-65
2021/06/01 03:18:57;;;;;;;;;;;;;;;9.01;73.45;100762.56;106057;1096;76971;-66
2021/06/01 03:21:02;;;;;;;;;;;;;;;9.02;73.25;100765.08;106045;1096;77006;-65
2021/06/01 03:23:08;;;;;;;;;;;;;;;9.04;73.45;100765.73;106064;1096;77316;-66
2021/06/01 03:25:13;;;;;;;;;;;;;;;9.08;73.00;100763.55;106031;1095;77146;-66
2021/06/01 03:27:18;;;;;;;;;;;;;;;9.13;73.17;100756.64;106047;1096;77545;-60
2021/06/01 03:29:23;;;;;;;;;;;;;;;9.19;72.91;100755.11;106029;1095;76909;-60
2021/06/01 03:31:31;;;;;;;;;;;;;;;9.26;72.96;100758.79;106070;1096;77473;-65
2021/06/01 03:33:36;;;;;;;;;;;;;;;9.34;73.31;100756.07;106029;1096;77784;-65
2021/06/01 03:35:42;;;;;;;;;;;;;;;9.42;73.19;100750.69;106019;1096;78557;-65
2021/06/01 03:37:47;;;;;;;;;;;;;;;9.47;72.88;100753.70;106033;1095;76810;-66
2021/06/01 03:39:52;;;;;;;;;;;;;;;9.52;72.80;100743.23;106018;1096;77077;-66
2021/06/01 03:41:57;;;;;;;;;;;;;;;9.59;73.00;100751.44;106030;1096;77237;-60
2021/06/01 03:44:02;;;;;;;;;;;;;;;9.67;72.95;100749.55;106053;1096;78432;-60
2021/06/01 03:46:08;;;;;;;;;;;;;;;9.76;72.92;100745.81;106037;1095;78239;-60
2021/06/01 03:48:16;;;;;;;;;;;;;;;9.84;73.17;100744.93;106044;1096;77703;-60
2021/06/01 03:50:24;;;;;;;;;;;;;;;9.95;73.05;100745.38;106031;1095;77515;-60
2021/06/01 03:52:30;;;;;;;;;;;;;;;10.07;72.90;100743.13;106035;1096;76805;-65
2021/06/01 03:54:35;;;;;;;;;;;;;;;10.18;72.79;100739.22;106034;1096;77709;-66
2021/06/01 03:56:41;;;;;;;;;;;;;;;10.29;72.65;100738.81;106059;1096;76671;-60
2021/06/01 03:58:46;;;;;;;;;;;;;;;10.40;72.83;100744.64;106035;1095;77472;-60
2021/06/01 04:00:51;;;;;;;;;;;;;;;10.50;72.76;100749.78;106013;1095;77259;-65
2021/06/01 04:02:59;;;;;;;;;;;;;;;10.59;72.55;100748.71;106013;1096;77786;-66
2021/06/01 04:05:07;;;;;;;;;;;;;;;10.69;72.60;100749.30;106031;1096;76786;-66
2021/06/01 04:07:12;;;;;;;;;;;;;;;10.75;72.20;100745.88;106043;1095;77471;-66
2021/06/01 04:09:17;;;;;;;;;;;;;;;10.80;72.10;100742.61;106061;1095;77659;-66
2021/06/01 04:11:22;;;;;;;;;;;;;;;10.84;71.94;100744.79;106062;1096;77654;-66
2021/06/01 04:13:27;;;;;;;;;;;;;;;10.94;71.91;100737.25;106022;1096;77405;-66
2021/06/01 04:15:35;;;;;;;;;;;;;;;11.05;71.79;100744.08;106050;1096;77489;-66
2021/06/01 04:17:41;;;;;;;;;;;;;;;11.08;71.63;100741.85;106051;1095;78396;-66
2021/06/01 04:19:46;;;;;;;;;;;;;;;11.10;71.55;100742.50;106031;1096;77239;-66
2021/06/01 04:21:52;;;;;;;;;;;;;;;11.19;71.51;100744.11;106056;1096;77066;-66
2021/06/01 04:23:57;;;;;;;;;;;;;;;11.24;71.36;100744.38;106033;1096;76765;-66
2021/06/01 04:26:02;;;;;;;;;;;;;;;11.31;71.28;100735.54;106041;1096;76744;-66
2021/06/01 04:28:07;;;;;;;;;;;;;;;11.33;71.11;100741.59;106023;1096;77574;-65
2021/06/01 04:30:14;;;;;;;;;;;;;;;11.33;70.98;100744.30;106031;1096;77555;-66
2021/06/01 04:32:22;;;;;;;;;;;;;;;11.30;71.29;100736.55;106036;1096;77667;-66
2021/06/01 04:34:27;;;;;;;;;;;;;;;11.33;71.18;100744.30;106044;1095;78630;-66
2021/06/01 04:36:36;;;;;;;;;;;;;;;11.39;71.11;100741.70;106016;1096;77681;-62
2021/06/01 04:38:41;;;;;;;;;;;;;;;11.50;71.25;100748.51;106031;1096;77786;-61
2021/06/01 04:40:49;;;;;;;;;;;;;;;11.70;71.21;100749.66;106016;1096;77463;-63
2021/06/01 04:42:54;;;;;;;;;;;;;;;11.92;71.18;100743.25;106043;1096;78129;-61
2021/06/01 04:44:59;;;;;;;;;;;;;;;12.20;71.10;100738.80;106034;1095;76777;-60
2021/06/01 04:47:05;;;;;;;;;;;;;;;12.52;70.71;100740.20;106050;1096;77266;-63
2021/06/01 04:49:12;;;;;;;;;;;;;;;12.80;70.05;100740.25;106037;1096;77948;-60
2021/06/01 04:51:18;;;;;;;;;;;;;;;12.97;69.64;100736.20;106020;1095;76939;-61
2021/06/01 04:53:23;;;;;;;;;;;;;;;13.14;69.39;100737.63;106053;1096;78032;-62
2021/06/01 04:55:28;;;;;;;;;;;;;;;13.27;69.30;100736.86;106000;1095;80744;-61
2021/06/01 04:57:33;;;;;;;;;;;;;;;13.39;68.55;100727.99;106040;1095;77050;-66
2021/06/01 04:59:38;;;;;;;;;;;;;;;13.47;68.18;100733.25;106022;1096;77465;-66
2021/06/01 05:01:43;;;;;;;;;;;;;;;13.52;67.69;100733.48;106032;1096;76492;-65
2021/06/01 05:03:49;;;;;;;;;;;;;;;13.53;67.24;100734.33;105909;1096;77024;-66
2021/06/01 05:05:54;;;;;;;;;;;;;;;13.51;66.99;100739.13;106036;1096;77836;-64
2021/06/01 05:07:59;;;;;;;;;;;;;;;13.49;66.77;100731.17;106065;1096;76948;-59
2021/06/01 05:10:05;;;;;;;;;;;;;;;13.55;66.73;100740.39;106025;1096;77346;-59
2021/06/01 05:12:14;;;;;;;;;;;;;;;13.62;66.58;100741.28;105908;1097;77113;-62
2021/06/01 05:14:19;;;;;;;;;;;;;;;13.70;66.42;100743.83;106047;1096;76973;-64
2021/06/01 05:16:24;;;;;;;;;;;;;;;13.78;66.25;100742.81;106019;1096;77287;-64
2021/06/01 05:18:29;;;;;;;;;;;;;;;13.92;66.20;100744.55;106024;1096;78353;-65
2021/06/01 05:20:37;;;;;;;;;;;;;;;14.03;66.02;100752.97;106036;1096;77228;-65
2021/06/01 05:22:43;;;;;;;;;;;;;;;14.19;65.81;100740.89;106047;1096;77515;-65
2021/06/01 05:24:49;;;;;;;;;;;;;;;14.44;65.59;100750.20;106037;1096;76623;-65
2021/06/01 05:26:54;;;;;;;;;;;;;;;14.72;65.37;100747.31;106056;1096;78186;-59
2021/06/01 05:29:00;;;;;;;;;;;;;;;14.96;64.96;100749.41;106026;1096;77931;-60
2021/06/01 05:31:14;;;;;;;;;;;;;;;15.10;64.50;100748.38;106067;1096;77807;-60
2021/06/01 05:33:24;;;;;;;;;;;;;;;15.04;63.88;100741.04;106040;1095;76962;-59
2021/06/01 05:35:31;;;;;;;;;;;;;;;14.91;64.21;100741.05;106024;1096;76710;-59
2021/06/01 05:37:39;;;;;;;;;;;;;;;14.84;63.73;100744.79;106031;1096;77957;-65
2021/06/01 05:39:47;;;;;;;;;;;;;;;14.68;63.48;100738.73;105933;1097;77301;-65
2021/06/01 05:41:55;;;;;;;;;;;;;;;14.66;63.38;100743.55;106036;1095;77871;-65
2021/06/01 05:44:00;;;;;;;;;;;;;;;14.62;63.30;100741.42;106036;1096;78426;-65
2021/06/01 05:46:06;;;;;;;;;;;;;;;14.57;63.38;100742.06;106059;1096;77233;-60
2021/06/01 05:48:12;;;;;;;;;;;;;;;14.58;62.99;100741.02;106039;1096;78139;-60
2021/06/01 05:50:17;;;;;;;;;;;;;;;14.53;63.01;100742.69;106034;1096;78543;-60
2021/06/01 05:52:22;;;;;;;;;;;;;;;14.50;62.79;100743.91;106062;1095;77302;-60
2021/06/01 05:54:27;;;;;;;;;;;;;;;14.50;62.99;100743.91;106087;1096;78117;-60
2021/06/01 05:56:32;;;;;;;;;;;;;;;14.57;62.83;100746.66;106023;1096;76833;-66
2021/06/01 05:58:38;;;;;;;;;;;;;;;14.64;62.77;100740.17;106015;1096;77850;-65
2021/06/01 06:00:49;;;;;;;;;;;;;;;14.73;62.73;100744.38;106040;1096;77468;-65
2021/06/01 06:02:55;;;;;;;;;;;;;;;14.85;62.66;100741.88;106032;1095;77681;-65
2021/06/01 06:05:00;;;;;;;;;;;;;;;14.98;62.67;100744.59;106068;1095;78344;-65
2021/06/01 06:07:05;;;;;;;;;;;;;;;15.09;62.49;100748.56;106042;1096;77386;-59
2021/06/01 06:09:10;;;;;;;;;;;;;;;15.28;62.56;100747.70;106059;1096;78039;-59
2021/06/01 06:11:16;;;;;;;;;;;;;;;15.53;62.33;100745.19;106042;1095;76632;-60
2021/06/01 06:13:24;;;;;;;;;;;;;;;15.69;61.54;100739.27;106036;1096;76744;-59
2021/06/01 06:15:29;;;;;;;;;;;;;;;15.93;61.77;100736.67;106022;1095;77423;-60
2021/06/01 06:17:48;;;;;;;;;;;;;;;16.21;61.48;100733.60;106045;1095;76962;-65
2021/06/01 06:19:53;;;;;;;;;;;;;;;16.45;61.00;100740.20;106045;1095;77109;-66
2021/06/01 06:21:58;;;;;;;;;;;;;;;16.66;60.63;100737.14;106035;1095;77824;-59
2021/06/01 06:24:04;;;;;;;;;;;;;;;16.86;60.08;100743.30;106017;1095;77644;-60
2021/06/01 06:26:10;;;;;;;;;;;;;;;16.97;59.80;100745.31;106052;1096;76996;-65
2021/06/01 06:28:15;;;;;;;;;;;;;;;17.08;59.42;100746.48;106012;1096;77545;-65
2021/06/01 06:30:21;;;;;;;;;;;;;;;17.16;59.10;100745.36;106029;1096;77593;-65
2021/06/01 06:32:26;;;;;;;;;;;;;;;17.26;58.97;100749.24;106041;1096;77330;-60
2021/06/01 06:34:32;;;;;;;;;;;;;;;17.37;58.76;100734.01;106043;1095;77315;-60
2021/06/01 06:36:38;;;;;;;;;;;;;;;17.52;58.28;100742.70;106035;1096;78407;-66
2021/06/01 06:38:46;;;;;;;;;;;;;;;17.61;57.76;100742.19;106041;1096;77038;-66
2021/06/01 06:41:03;;;;;;;;;;;;;;;17.71;57.66;100736.21;106044;1096;78332;-65
2021/06/01 06:43:09;;;;;;;;;;;;;;;17.84;57.33;100740.67;106040;1095;78274;-65
2021/06/01 06:45:16;;;;;;;;;;;;;;;17.92;57.07;100741.20;106017;1095;77438;-65
2021/06/01 06:47:29;;;;;;;;;;;;;;;18.11;56.82;100740.13;106057;1096;76678;-65
2021/06/01 06:49:34;;;;;;;;;;;;;;;18.27;56.72;100735.91;106033;1095;78004;-65
2021/06/01 06:51:41;;;;;;;;;;;;;;;18.42;56.06;100739.08;106044;1095;76777;-60
2021/06/01 06:53:52;;;;;;;;;;;;;;;18.63;56.01;100730.36;106017;1095;77165;-59
2021/06/01 06:55:57;;;;;;;;;;;;;;;18.78;55.09;100732.67;106040;1096;78252;-65
2021/06/01 06:58:05;;;;;;;;;;;;;;;18.98;54.96;100735.91;106026;1096;76770;-66
2021/06/01 07:00:15;;;;;;;;;;;;;;;19.09;54.37;100735.08;106006;1096;78012;-65
2021/06/01 07:02:24;;;;;;;;;;;;;;;19.26;54.10;100732.47;106061;1096;76648;-60
2021/06/01 07:04:29;;;;;;;;;;;;;;;19.43;53.61;100736.20;106047;1096;77304;-59
2021/06/01 07:06:34;;;;;;;;;;;;;;;19.64;53.67;100732.03;106018;1096;77457;-62
2021/06/01 07:08:39;;;;;;;;;;;;;;;19.93;53.11;100725.53;106052;1096;77908;-59
2021/06/01 07:10:47;;;;;;;;;;;;;;;19.99;52.51;100725.41;106009;1095;77508;-59
2021/06/01 07:12:52;;;;;;;;;;;;;;;20.09;52.16;100729.41;106045;1095;77128;-60
2021/06/01 07:15:10;;;;;;;;;;;;;;;20.11;52.22;100722.59;106023;1096;76729;-59
2021/06/01 07:17:16;;;;;;;;;;;;;;;20.13;51.77;100727.86;106042;1096;77352;-59
2021/06/01 07:19:24;;;;;;;;;;;;;;;20.20;50.95;100715.66;106038;1096;77584;-58
2021/06/01 07:21:29;;;;;;;;;;;;;;;20.21;50.78;100719.23;106031;1095;77280;-71
2021/06/01 07:23:35;;;;;;;;;;;;;;;20.21;50.53;100725.56;106028;1096;78214;-71
2021/06/01 07:25:40;;;;;;;;;;;;;;;20.29;50.37;100716.97;106036;1096;78455;-71
2021/06/01 07:27:45;;;;;;;;;;;;;;;20.36;50.30;100720.39;106043;1095;76842;-72
2021/06/01 07:29:51;;;;;;;;;;;;;;;20.50;50.17;100716.27;106013;1095;77571;-69
2021/06/01 07:31:56;;;;;;;;;;;;;;;20.63;49.95;100712.36;106037;1095;77804;-68
2021/06/01 07:34:02;;;;;;;;;;;;;;;20.97;49.70;100715.98;106040;1095;78733;-66
2021/06/01 07:36:07;;;;;;;;;;;;;;;21.46;49.33;100720.63;106042;1096;78040;-68
2021/06/01 07:38:16;;;;;;;;;;;;;;;22.35;49.14;100707.49;106064;1096;76875;-66
2021/06/01 07:40:21;;;;;;;;;;;;;;;24.14;47.75;100703.88;106020;1095;76767;-66
2021/06/01 07:42:27;;;;;;;;;;;;;;;25.35;45.52;100712.31;106038;1096;77479;-59
2021/06/01 07:44:33;;;;;;;;;;;;;;;25.12;43.35;100703.48;106035;1096;77368;-59
2021/06/01 07:46:39;;;;;;;;;;;;;;;24.88;43.61;100699.63;106076;1095;77818;-59
2021/06/01 07:48:44;;;;;;;;;;;;;;;24.90;42.62;100711.23;106032;1096;77289;-59
2021/06/01 07:50:50;;;;;;;;;;;;;;;24.35;42.88;100709.19;106048;1095;77975;-60
2021/06/01 07:52:55;;;;;;;;;;;;;;;23.82;42.83;100713.09;106031;1096;77612;-66
2021/06/01 07:55:00;;;;;;;;;;;;;;;23.67;43.37;100710.28;106033;1095;77300;-66
2021/06/01 07:57:06;;;;;;;;;;;;;;;23.63;42.63;100720.17;106085;1096;78114;-66
2021/06/01 07:59:12;;;;;;;;;;;;;;;23.67;42.50;100720.48;106041;1096;78333;-66
2021/06/01 08:01:20;;;;;;;;;;;;;;;23.54;42.60;100723.72;106028;1096;77789;-59
2021/06/01 08:03:25;;;;;;;;;;;;;;;22.83;42.25;100714.86;106030;1096;77921;-58
2021/06/01 08:05:30;;;;;;;;;;;;;;;22.76;42.86;100711.50;106035;1096;76886;-59
2021/06/01 08:07:36;;;;;;;;;;;;;;;22.62;43.52;100710.23;106037;1096;77946;-66
2021/06/01 08:09:43;;;;;;;;;;;;;;;22.94;43.89;100704.78;106057;1096;78278;-66
2021/06/01 08:11:48;;;;;;;;;;;;;;;24.61;43.76;100701.79;106041;1096;78105;-66
2021/06/01 08:13:53;;;;;;;;;;;;;;;26.22;41.55;100703.48;106012;1096;78521;-67
2021/06/01 08:16:00;;;;;;;;;;;;;;;27.31;39.54;100705.72;106039;1095;77115;-59
2021/06/01 08:18:08;;;;;;;;;;;;;;;28.18;38.37;100702.84;106035;1096;76883;-58
2021/06/01 08:20:27;;;;;;;;;;;;;;;27.56;35.24;100704.66;106038;1096;76848;-59
2021/06/01 08:22:32;;;;;;;;;;;;;;;26.26;35.79;100702.61;106036;1096;77691;-59
2021/06/01 08:24:38;;;;;;;;;;;;;;;25.71;36.88;100708.39;106023;1096;78414;-59
2021/06/01 08:26:44;;;;;;;;;;;;;;;25.69;36.76;100710.58;106013;1096;77933;-59
2021/06/01 08:28:51;;;;;;;;;;;;;;;25.43;36.83;100704.27;106045;1096;77498;-59
2021/06/01 08:30:57;;;;;;;;;;;;;;;25.18;37.13;100704.31;106031;1095;77284;-59
2021/06/01 08:33:02;;;;;;;;;;;;;;;24.79;37.51;100701.27;106017;1096;76584;-59
2021/06/01 08:35:11;;;;;;;;;;;;;;;24.81;38.40;100696.29;106014;1096;77906;-59
2021/06/01 08:37:16;;;;;;;;;;;;;;;24.78;37.92;100694.05;106037;1096;77597;-67
2021/06/01 08:39:25;;;;;;;;;;;;;;;24.85;38.73;100696.58;106032;1095;77882;-66
2021/06/01 08:41:30;;;;;;;;;;;;;;;24.82;37.42;100694.36;106055;1096;77074;-59
2021/06/01 08:43:35;;;;;;;;;;;;;;;24.27;37.75;100698.67;106035;1096;78245;-59
2021/06/01 08:45:41;;;;;;;;;;;;;;;25.56;36.70;100691.81;106047;1095;76936;-59
2021/06/01 08:47:47;;;;;;;;;;;;;;;26.47;37.33;100689.48;106032;1096;76839;-59
2021/06/01 08:49:52;;;;;;;;;;;;;;;27.55;36.22;100694.70;106062;1096;78110;-59
2021/06/01 08:51:57;;;;;;;;;;;;;;;28.21;35.23;100686.38;106052;1096;78648;-59
2021/06/01 08:54:03;;;;;;;;;;;;;;;28.68;33.21;100684.63;106063;1096;77656;-59
2021/06/01 08:56:11;;;;;;;;;;;;;;;29.06;32.55;100689.78;106049;1096;77591;-60
2021/06/01 08:58:17;;;;;;;;;;;;;;;29.07;31.27;100683.11;106036;1096;78087;-59
2021/06/01 09:00:23;;;;;;;;;;;;;;;28.48;29.96;100683.78;106037;1096;77264;-59
2021/06/01 09:02:28;;;;;;;;;;;;;;;28.64;31.49;100685.22;106042;1095;78042;-67
2021/06/01 09:04:49;;;;;;;;;;;;;;;28.76;30.84;100681.95;106011;1096;78414;-67
2021/06/01 09:06:59;;;;;;;;;;;;;;;29.50;30.50;100680.93;106040;1095;77118;-67
2021/06/01 09:14:15;;;;;;;;;;;;;;;29.66;29.25;100676.73;106011;1095;77251;-59
2021/06/01 09:21:12;;;;;;;;;;;;;;;29.40;28.47;100671.95;106022;1095;76784;-66
2021/06/01 09:23:18;;;;;;;;;;;;;;;29.31;28.84;100671.04;106016;1095;78169;-66
2021/06/01 09:25:34;;;;;;;;;;;;;;;29.25;25.81;100667.52;106025;1095;77335;-67
2021/06/01 09:27:47;;;;;;;;;;;;;;;28.95;27.39;100673.59;106016;1095;77354;-67
2021/06/01 09:29:52;;;;;;;;;;;;;;;28.40;27.81;100672.51;106038;1096;77468;-67
2021/06/01 09:32:16;;;;;;;;;;;;;;;27.84;27.11;100675.19;106041;1095;77739;-59
2021/06/01 09:34:24;;;;;;;;;;;;;;;27.33;28.39;100670.17;106028;1096;78740;-59
2021/06/01 09:36:30;;;;;;;;;;;;;;;26.94;29.12;100666.70;106041;1095;77869;-66
2021/06/01 09:38:44;;;;;;;;;;;;;;;26.68;29.37;100662.44;106032;1095;76793;-67
2021/06/01 09:41:03;;;;;;;;;;;;;;;26.17;29.53;100661.97;106035;1095;77340;-60
2021/06/01 09:43:09;;;;;;;;;;;;;;;25.93;30.97;100656.23;106053;1095;77943;-59
2021/06/01 09:45:17;;;;;;;;;;;;;;;25.81;30.83;100655.75;106028;1096;77117;-59
2021/06/01 09:47:44;;;;;;;;;;;;;;;25.71;30.17;100653.03;106033;1096;77509;-67
2021/06/01 09:50:12;;;;;;;;;;;;;;;25.16;30.13;100668.63;106028;1096;77563;-67
2021/06/01 09:52:17;;;;;;;;;;;;;;;24.80;30.57;100661.48;106040;1096;77148;-66
2021/06/01 09:54:30;;;;;;;;;;;;;;;24.64;30.78;100660.61;106027;1095;77473;-67
2021/06/01 09:56:35;;;;;;;;;;;;;;;24.32;31.29;100665.55;106066;1095;77256;-59
2021/06/01 09:58:41;;;;;;;;;;;;;;;24.12;30.94;100661.92;106028;1096;76901;-59
2021/06/01 10:00:49;;;;;;;;;;;;;;;23.98;31.45;100670.66;106032;1096;77603;-60
2021/06/01 10:03:00;;;;;;;;;;;;;;;23.77;32.10;100663.41;106043;1095;76958;-67
2021/06/01 10:05:13;;;;;;;;;;;;;;;23.62;33.16;100668.88;106035;1096;77395;-67
2021/06/01 10:07:28;;;;;;;;;;;;;;;23.52;33.65;100673.48;106033;1096;77527;-66
2021/06/01 10:09:45;;;;;;;;;;;;;;;23.38;33.21;100667.62;106043;1096;77142;-67
2021/06/01 10:12:11;;;;;;;;;;;;;;;23.15;33.06;100668.84;106044;1096;77180;-59
2021/06/01 10:14:20;;;;;;;;;;;;;;;23.14;32.85;100666.34;106043;1096;77695;-59
2021/06/01 10:16:28;;;;;;;;;;;;;;;23.13;32.35;100668.25;106031;1095;77335;-66
2021/06/01 10:18:33;;;;;;;;;;;;;;;23.07;33.17;100662.99;106013;1096;76920;-66
2021/06/01 10:20:40;;;;;;;;;;;;;;;22.98;33.15;100665.41;106044;1096;78026;-66
2021/06/01 10:22:45;;;;;;;;;;;;;;;22.90;33.13;100661.22;106050;1096;77727;-58
2021/06/01 10:24:50;;;;;;;;;;;;;;;22.91;33.39;100656.52;106037;1096;76787;-60
2021/06/01 10:26:57;;;;;;;;;;;;;;;22.89;34.08;100667.81;106058;1096;77642;-66
2021/06/01 10:29:03;;;;;;;;;;;;;;;23.04;35.21;100655.25;106049;1095;76881;-59
2021/06/01 10:31:10;;;;;;;;;;;;;;;23.09;34.23;100658.03;106018;1096;77341;-58
2021/06/01 10:33:17;;;;;;;;;;;;;;;23.16;33.60;100659.45;106020;1096;78351;-58
2021/06/01 10:35:26;;;;;;;;;;;;;;;23.24;33.19;100652.64;106056;1096;77551;-58
2021/06/01 10:44:55;;;;;;;;;;;;;;;23.24;32.77;100658.95;106006;1096;77522;-57
2021/06/01 10:50:00;;;;;;;;;;;;;;;23.35;33.89;100655.16;106050;1096;77595;-58
2021/06/01 10:52:13;;;;;;;;;;;;;;;23.28;33.78;100657.34;106019;1096;76816;-58
2021/06/01 10:54:53;;;;;;;;;;;;;;;23.35;34.12;100657.92;106001;1096;78145;-57
2021/06/01 10:56:58;;;;;;;;;;;;;;;23.37;34.39;100654.91;106046;1095;77475;-59
2021/06/01 10:59:09;;;;;;;;;;;;;;;23.35;33.76;100649.65;106045;1095;77298;-58
2021/06/01 11:04:07;;;;;;;;;;;;;;;23.18;34.08;100650.94;106029;1096;77822;-60
2021/06/01 11:06:15;;;;;;;;;;;;;;;23.16;33.50;100653.95;106045;1096;77703;-59
2021/06/01 11:08:38;;;;;;;;;;;;;;;23.04;33.41;100641.47;106045;1095;76802;-64
2021/06/01 11:10:45;;;;;;;;;;;;;;;22.95;34.31;100646.64;106015;1096;78442;-66
2021/06/01 11:12:51;;;;;;;;;;;;;;;23.00;34.97;100648.59;106029;1096;78532;-59
2021/06/01 11:14:57;;;;;;;;;;;;;;;23.07;33.92;100644.54;106020;1096;77946;-59